マドリード/バラハス の空港の天気 - METARとTAF

マドリード・バラハス国際空港 ( LEMD / MAD ) - スペイン マドリード
飛行場実況気象(Metar)
観測時間03/28 23:00 CEST (03/28 21:00 UTC)
風向・風速静穏 0m/s
視程10km以上
天気現象
なし
気温9℃
湿度53%
気圧1028hPa
METARLEMD 282100Z 00000KT CAVOK 09/00 Q1028 NOSIG
過去の天気等 Google飛行場航空写真 Wunderground天気予報

過去48時間のMETAR

飛行場予報(TAF)
発表時間: 3/28 19:00 CEST (3/28 17:00 UTC)
予報対象時間: 28日20時 CEST ~ 30日2時 CEST
風向・風速不定 3m/s
視程10km以上
全天の4割程度の雲 雲底高度 760m
28日20時 CEST ~ 28日21時 CEST に 確率 30% で一時的に
風向・風速南西 4m/s 瞬間風速 9m/s
TAF LEMD 281700Z 2818/2924 VRB05KT 9999 SCT025 TX20/2915Z TN04/2906Z
PROB30 TEMPO 2818/2819 23007G17KT